Skip Navigation Links Skip Navigation Links

Current Weather

San Francisco International, San Francisco

For information only: do not use for flight planning or navigation.
Latest weather
Observation time Sunday, May 31, 2020 5:56 AM PDT
Local time Sunday, May 31, 2020 6:26 AM PDT
Flight conditions Marginal Visual Meteorological Conditions
Winds
Wind direction West (280°)
Wind speed 7 mph
Visibility 10 mi.
Sky condition
Ceiling 2,100 ft. overcast
Cloud layer few clouds 1,800 ft.
Cloud layer overcast 2,100 ft.
Temperature 56°F
Dewpoint 51°F
Altimeter 29.96 in.Hg
Derived measurements
Relative humidity 84%
Density altitude -53 ft.
Sea-level pressure 29.96 in.Hg
Remarks
Automated weather observing station with precipitation discriminator.
METAR KSFO 311256Z 28006KT 10SM FEW018 OVC021 13/11 A2996 RMK AO2 SLP146 T01330106

Settings

Location code

InnerDrive.Weather 4.0.6770.0 Release CLR 4.0.30319.42000
Copyright ©2018 Inner Drive Technology. All rights reserved. Portions Copyright ©1986-2018 David Braverman.

Find weather

Site navigation


Skip Navigation Links

Place info

Page info

PayPal - The safer, easier way to pay online!

Return home.

Copyright ©2020 Inner Drive Technology. Purveyors of fine, hand-crafted computer software. Page printed 2020-05-31T13:26:38 UTC.